Time;durP1;ratioP1;P1;durP2;ratioP2;P2;SDS_P1;SDS_P2;PMS_P1;PMS_P2;Temp;Humidity;BMP_temperature;BMP_pressure;BME280_temperature;BME280_humidity;BME280_pressure;Samples;Min_cycle;Max_cycle;Signal;HPM_P1;HPM_P2
2022/08/01 00:01:16;;;;;;;23.63;15.07;;;;;;;;;;5032294;28;20561;-50
2022/08/01 00:03:42;;;;;;;16.90;14.60;;;;;;;;;;5033066;28;20433;-49
2022/08/01 00:06:08;;;;;;;16.27;13.60;;;;;;;;;;5033516;28;20395;-50
2022/08/01 00:08:34;;;;;;;17.40;14.50;;;;;;;;;;5032851;28;20464;-50
2022/08/01 00:11:00;;;;;;;15.40;13.80;;;;;;;;;;5031827;28;20426;-50
2022/08/01 00:13:26;;;;;;;15.63;12.97;;;;;;;;;;5032350;28;20878;-50
2022/08/01 00:15:52;;;;;;;19.50;13.93;;;;;;;;;;5032491;28;20418;-51
2022/08/01 00:18:18;;;;;;;14.80;12.43;;;;;;;;;;5032620;28;20406;-51
2022/08/01 00:20:44;;;;;;;14.70;12.20;;;;;;;;;;5031927;28;20430;-51
2022/08/01 00:23:10;;;;;;;14.97;12.40;;;;;;;;;;5032112;28;20406;-50
2022/08/01 00:25:35;;;;;;;18.27;11.80;;;;;;;;;;5032465;28;20406;-50
2022/08/01 00:28:02;;;;;;;18.43;11.77;;;;;;;;;;5032595;28;20444;-49
2022/08/01 00:30:28;;;;;;;14.30;12.20;;;;;;;;;;5031228;28;20423;-49
2022/08/01 00:32:54;;;;;;;17.13;12.00;;;;;;;;;;5031991;28;20504;-49
2022/08/01 00:35:20;;;;;;;19.53;12.50;;;;;;;;;;5032219;28;20407;-51
2022/08/01 00:37:46;;;;;;;11.63;10.43;;;;;;;;;;5031813;28;20487;-50
2022/08/01 00:40:12;;;;;;;13.80;10.70;;;;;;;;;;5031294;28;20861;-51
2022/08/01 00:42:38;;;;;;;14.60;11.93;;;;;;;;;;5031860;28;20466;-50
2022/08/01 00:45:04;;;;;;;13.50;11.77;;;;;;;;;;5034683;28;20481;-51
2022/08/01 00:47:30;;;;;;;16.03;12.97;;;;;;;;;;5035276;28;20434;-49
2022/08/01 00:49:56;;;;;;;17.20;13.47;;;;;;;;;;5034974;28;20440;-51
2022/08/01 00:52:22;;;;;;;22.27;15.60;;;;;;;;;;5035715;28;20881;-52
2022/08/01 00:54:48;;;;;;;24.60;17.30;;;;;;;;;;5035859;28;20406;-51
2022/08/01 00:57:14;;;;;;;24.07;19.97;;;;;;;;;;5035725;28;20398;-50
2022/08/01 00:59:41;;;;;;;25.13;18.90;;;;;;;;;;5035375;28;20435;-50
2022/08/01 01:02:07;;;;;;;26.83;18.83;;;;;;;;;;5034356;28;20462;-51
2022/08/01 01:04:33;;;;;;;28.30;21.10;;;;;;;;;;5035211;28;20408;-49
2022/08/01 01:06:58;;;;;;;33.80;20.80;;;;;;;;;;5034669;28;20398;-49
2022/08/01 01:09:41;;;;;;;36.87;22.70;;;;;;;;;;5035600;28;20448;-50
2022/08/01 01:12:10;;;;;;;32.93;22.40;;;;;;;;;;5035636;28;20890;-51
2022/08/01 01:14:46;;;;;;;27.07;20.20;;;;;;;;;;5034967;28;20430;-50
2022/08/01 01:17:12;;;;;;;29.67;20.77;;;;;;;;;;5035412;28;20431;-52
2022/08/01 01:19:42;;;;;;;27.03;20.10;;;;;;;;;;5034844;28;20436;-49
2022/08/01 01:22:20;;;;;;;25.97;20.30;;;;;;;;;;5035197;28;20457;-51
2022/08/01 01:25:04;;;;;;;25.60;20.60;;;;;;;;;;5034440;28;20437;-51
2022/08/01 01:27:43;;;;;;;23.47;19.60;;;;;;;;;;5035348;28;20544;-50
2022/08/01 01:30:09;;;;;;;27.60;20.90;;;;;;;;;;5034368;28;20932;-50
2022/08/01 01:32:35;;;;;;;33.97;20.97;;;;;;;;;;5034034;28;20414;-50
2022/08/01 01:35:06;;;;;;;26.80;20.00;;;;;;;;;;5034926;28;20405;-51
2022/08/01 01:37:33;;;;;;;30.30;21.17;;;;;;;;;;5035099;28;20403;-50
2022/08/01 01:40:00;;;;;;;32.63;23.13;;;;;;;;;;5034252;28;20977;-50
2022/08/01 01:42:26;;;;;;;27.97;21.07;;;;;;;;;;5034774;28;20450;-50
2022/08/01 01:44:52;;;;;;;30.17;21.77;;;;;;;;;;5033978;28;20418;-51
2022/08/01 01:47:18;;;;;;;31.57;21.77;;;;;;;;;;5034817;28;20402;-51
2022/08/01 01:49:45;;;;;;;32.37;22.27;;;;;;;;;;5033837;28;20441;-51
2022/08/01 01:52:13;;;;;;;32.77;22.80;;;;;;;;;;5035154;28;20406;-51
2022/08/01 01:54:41;;;;;;;29.77;21.37;;;;;;;;;;5035222;28;20402;-50
2022/08/01 01:57:07;;;;;;;27.80;21.40;;;;;;;;;;5034476;28;20909;-49
2022/08/01 01:59:35;;;;;;;30.20;23.93;;;;;;;;;;5034286;28;20425;-51
2022/08/01 02:02:02;;;;;;;33.63;22.40;;;;;;;;;;5034109;28;20814;-49
2022/08/01 02:04:29;;;;;;;31.30;21.63;;;;;;;;;;5034536;28;20460;-51
2022/08/01 02:06:56;;;;;;;27.47;21.53;;;;;;;;;;5034462;28;20395;-50
2022/08/01 02:09:23;;;;;;;31.43;21.37;;;;;;;;;;5034162;28;20418;-49
2022/08/01 02:11:50;;;;;;;29.27;20.33;;;;;;;;;;5032749;28;20727;-50
2022/08/01 02:14:17;;;;;;;28.13;19.97;;;;;;;;;;5033555;28;20438;-50
2022/08/01 02:16:44;;;;;;;27.53;19.40;;;;;;;;;;5034240;28;20409;-50
2022/08/01 02:19:10;;;;;;;28.33;18.83;;;;;;;;;;5034022;28;20410;-51
2022/08/01 02:21:41;;;;;;;31.30;19.77;;;;;;;;;;5033437;28;20450;-51
2022/08/01 02:24:08;;;;;;;25.70;18.10;;;;;;;;;;5034011;28;20921;-51
2022/08/01 02:26:34;;;;;;;29.30;21.37;;;;;;;;;;5034152;28;20952;-50
2022/08/01 02:29:06;;;;;;;29.23;22.20;;;;;;;;;;5033983;28;20434;-51
2022/08/01 02:31:33;;;;;;;28.50;21.30;;;;;;;;;;5033346;28;20489;-51
2022/08/01 02:34:04;;;;;;;32.83;23.30;;;;;;;;;;5033844;28;20410;-50
2022/08/01 02:36:31;;;;;;;32.63;21.10;;;;;;;;;;5033803;28;20398;-50
2022/08/01 02:38:57;;;;;;;28.50;22.33;;;;;;;;;;5033877;28;20413;-52
2022/08/01 02:41:25;;;;;;;31.90;21.90;;;;;;;;;;5033073;28;20454;-50
2022/08/01 02:43:52;;;;;;;30.07;20.20;;;;;;;;;;5032926;28;20803;-51
2022/08/01 02:46:24;;;;;;;29.60;20.40;;;;;;;;;;5033713;28;20551;-50
2022/08/01 02:48:52;;;;;;;29.30;19.83;;;;;;;;;;5033582;28;20896;-52
2022/08/01 02:51:18;;;;;;;31.73;21.03;;;;;;;;;;5032657;28;20449;-50
2022/08/01 02:53:45;;;;;;;31.77;22.70;;;;;;;;;;5033686;28;20411;-51
2022/08/01 02:56:12;;;;;;;27.43;19.97;;;;;;;;;;5033493;28;20499;-52
2022/08/01 02:58:38;;;;;;;24.50;19.90;;;;;;;;;;5033423;28;20407;-51
2022/08/01 03:01:06;;;;;;;35.40;22.33;;;;;;;;;;5032589;28;20430;-50
2022/08/01 03:03:32;;;;;;;31.83;20.87;;;;;;;;;;5033328;28;20402;-52
2022/08/01 03:05:58;;;;;;;28.87;20.60;;;;;;;;;;5032743;28;20773;-50
2022/08/01 03:08:25;;;;;;;35.50;20.53;;;;;;;;;;5033558;28;20369;-51
2022/08/01 03:10:52;;;;;;;27.00;19.83;;;;;;;;;;5032471;28;20423;-50
2022/08/01 03:13:18;;;;;;;38.53;20.90;;;;;;;;;;5032655;28;20775;-50
2022/08/01 03:15:44;;;;;;;35.80;22.40;;;;;;;;;;5032355;28;20443;-51
2022/08/01 03:18:11;;;;;;;31.20;20.30;;;;;;;;;;5033088;28;20817;-50
2022/08/01 03:20:37;;;;;;;28.93;19.90;;;;;;;;;;5032736;28;20445;-50
2022/08/01 03:23:05;;;;;;;32.43;21.87;;;;;;;;;;5032904;28;20461;-51
2022/08/01 03:25:33;;;;;;;27.80;20.23;;;;;;;;;;5033116;28;20406;-50
2022/08/01 03:28:00;;;;;;;30.20;20.20;;;;;;;;;;5032991;28;20468;-50
2022/08/01 03:30:27;;;;;;;27.90;19.80;;;;;;;;;;5032000;28;20823;-51
2022/08/01 03:32:54;;;;;;;30.80;21.07;;;;;;;;;;5032684;28;20401;-50
2022/08/01 03:35:22;;;;;;;30.23;19.33;;;;;;;;;;5032865;28;20408;-51
2022/08/01 03:37:51;;;;;;;28.00;20.57;;;;;;;;;;5032702;28;20823;-51
2022/08/01 03:40:40;;;;;;;28.70;20.80;;;;;;;;;;5031754;28;20989;-50
2022/08/01 03:43:08;;;;;;;33.30;22.53;;;;;;;;;;5022942;28;20854;-53
2022/08/01 03:45:39;;;;;;;32.73;21.70;;;;;;;;;;5032582;28;20405;-50
2022/08/01 03:48:14;;;;;;;37.20;22.00;;;;;;;;;;5032451;28;20775;-51
2022/08/01 03:50:43;;;;;;;32.27;22.50;;;;;;;;;;5031564;28;20450;-50
2022/08/01 03:53:10;;;;;;;30.80;21.20;;;;;;;;;;5032421;28;20772;-51
2022/08/01 03:55:38;;;;;;;33.50;21.50;;;;;;;;;;5032366;28;20406;-50
2022/08/01 03:58:05;;;;;;;34.30;21.73;;;;;;;;;;5032278;28;20410;-50
2022/08/01 04:00:31;;;;;;;32.40;22.87;;;;;;;;;;5031664;28;20509;-50
2022/08/01 04:02:58;;;;;;;40.27;23.03;;;;;;;;;;5032104;28;20820;-51
2022/08/01 04:05:25;;;;;;;33.40;22.10;;;;;;;;;;5032330;28;20421;-51
2022/08/01 04:07:59;;;;;;;31.37;21.43;;;;;;;;;;5032201;28;20445;-50
2022/08/01 04:10:25;;;;;;;42.87;21.93;;;;;;;;;;5031382;28;20929;-50
2022/08/01 04:12:51;;;;;;;32.10;20.93;;;;;;;;;;5031550;28;20452;-50
2022/08/01 04:15:17;;;;;;;27.93;20.87;;;;;;;;;;5032373;28;20737;-52
2022/08/01 04:17:43;;;;;;;33.30;19.67;;;;;;;;;;5031352;28;20447;-51
2022/08/01 04:20:10;;;;;;;33.23;20.40;;;;;;;;;;5031116;28;20764;-51
2022/08/01 04:22:36;;;;;;;32.83;20.83;;;;;;;;;;5031924;28;20976;-51
2022/08/01 04:25:03;;;;;;;32.70;21.40;;;;;;;;;;5031904;28;20398;-50
2022/08/01 04:27:31;;;;;;;27.40;19.50;;;;;;;;;;5031912;28;20426;-52
2022/08/01 04:29:59;;;;;;;32.50;20.13;;;;;;;;;;5031163;28;20421;-50
2022/08/01 04:32:26;;;;;;;34.70;20.17;;;;;;;;;;5031880;28;20434;-50
2022/08/01 04:34:55;;;;;;;30.93;18.83;;;;;;;;;;5031903;28;20382;-51
2022/08/01 04:37:23;;;;;;;23.27;18.03;;;;;;;;;;5031784;28;20413;-52
2022/08/01 04:39:51;;;;;;;29.33;19.57;;;;;;;;;;5031068;28;20436;-50
2022/08/01 04:42:17;;;;;;;29.30;20.70;;;;;;;;;;5030806;28;20466;-51
2022/08/01 04:44:43;;;;;;;28.50;19.70;;;;;;;;;;5031789;28;20406;-52
2022/08/01 04:47:09;;;;;;;26.50;19.10;;;;;;;;;;5031705;28;20412;-53
2022/08/01 04:49:35;;;;;;;25.00;17.40;;;;;;;;;;5031358;28;20444;-52
2022/08/01 04:52:01;;;;;;;22.90;17.03;;;;;;;;;;5031229;28;20479;-52
2022/08/01 04:54:27;;;;;;;22.80;16.43;;;;;;;;;;5031724;28;20421;-51
2022/08/01 04:57:00;;;;;;;25.97;16.90;;;;;;;;;;5031729;28;20415;-52
2022/08/01 04:59:41;;;;;;;20.33;14.70;;;;;;;;;;5031483;28;20476;-52
2022/08/01 05:02:08;;;;;;;24.80;15.80;;;;;;;;;;5031514;28;20529;-50
2022/08/01 05:04:35;;;;;;;20.53;14.50;;;;;;;;;;5031521;28;20406;-51
2022/08/01 05:07:01;;;;;;;27.47;15.60;;;;;;;;;;5031655;28;20823;-51
2022/08/01 05:09:27;;;;;;;21.83;13.80;;;;;;;;;;5031435;28;20454;-50
2022/08/01 05:11:53;;;;;;;18.83;14.47;;;;;;;;;;5030098;28;20438;-50
2022/08/01 05:14:19;;;;;;;18.90;13.47;;;;;;;;;;5031559;28;20409;-50
2022/08/01 05:16:46;;;;;;;22.87;14.47;;;;;;;;;;5031443;28;20806;-50
2022/08/01 05:19:12;;;;;;;22.17;14.20;;;;;;;;;;5031306;28;20407;-50
2022/08/01 05:21:38;;;;;;;20.13;14.30;;;;;;;;;;5030465;28;20481;-51
2022/08/01 05:24:05;;;;;;;21.50;13.60;;;;;;;;;;5031513;28;20410;-50
2022/08/01 05:26:31;;;;;;;16.70;12.83;;;;;;;;;;5031424;28;20405;-49
2022/08/01 05:28:57;;;;;;;19.27;15.37;;;;;;;;;;5031373;28;20913;-50
2022/08/01 05:31:23;;;;;;;18.73;13.77;;;;;;;;;;5034436;28;20407;-50
2022/08/01 05:33:49;;;;;;;23.43;14.70;;;;;;;;;;5034958;28;20402;-50
2022/08/01 05:36:15;;;;;;;20.53;13.47;;;;;;;;;;5035045;28;20433;-51
2022/08/01 05:38:41;;;;;;;20.00;15.20;;;;;;;;;;5034833;28;20538;-49
2022/08/01 05:41:07;;;;;;;20.40;13.90;;;;;;;;;;5034249;28;20813;-50
2022/08/01 05:43:33;;;;;;;16.60;12.57;;;;;;;;;;5033320;28;20441;-51
2022/08/01 05:45:59;;;;;;;19.90;14.10;;;;;;;;;;5034875;28;20400;-51
2022/08/01 05:48:25;;;;;;;19.20;13.97;;;;;;;;;;5034660;28;20820;-52
2022/08/01 05:50:51;;;;;;;21.87;14.73;;;;;;;;;;5034027;28;20794;-50
2022/08/01 05:53:17;;;;;;;23.93;13.70;;;;;;;;;;5034750;28;20962;-49
2022/08/01 05:55:43;;;;;;;27.40;14.33;;;;;;;;;;5035106;28;20498;-49
2022/08/01 05:58:09;;;;;;;20.63;14.37;;;;;;;;;;5034671;28;20841;-50
2022/08/01 06:00:35;;;;;;;18.50;13.20;;;;;;;;;;5033702;28;20425;-49
2022/08/01 06:03:01;;;;;;;18.33;13.87;;;;;;;;;;5034469;28;20512;-51
2022/08/01 06:05:27;;;;;;;13.13;11.70;;;;;;;;;;5034868;28;20910;-49
2022/08/01 06:07:53;;;;;;;19.80;13.33;;;;;;;;;;5034455;28;20424;-51
2022/08/01 06:10:19;;;;;;;15.33;11.53;;;;;;;;;;5033817;28;20445;-51
2022/08/01 06:12:45;;;;;;;16.17;12.03;;;;;;;;;;5033420;28;20538;-51
2022/08/01 06:15:11;;;;;;;15.97;11.23;;;;;;;;;;5034261;28;20399;-52
2022/08/01 06:17:38;;;;;;;13.17;10.40;;;;;;;;;;5034181;28;20461;-52
2022/08/01 06:20:06;;;;;;;14.60;11.30;;;;;;;;;;5033369;28;20917;-51
2022/08/01 06:22:32;;;;;;;15.67;10.97;;;;;;;;;;5034069;28;20453;-51
2022/08/01 06:24:58;;;;;;;19.20;12.40;;;;;;;;;;5034140;28;20751;-51
2022/08/01 06:27:25;;;;;;;16.07;11.83;;;;;;;;;;5034022;28;20394;-50
2022/08/01 06:29:54;;;;;;;18.17;12.40;;;;;;;;;;5033155;28;20417;-50
2022/08/01 06:32:24;;;;;;;16.93;12.50;;;;;;;;;;5034008;28;20400;-50
2022/08/01 06:34:50;;;;;;;19.13;12.23;;;;;;;;;;5033958;28;20506;-52
2022/08/01 06:37:16;;;;;;;15.70;12.00;;;;;;;;;;5034114;28;20846;-51
2022/08/01 06:39:42;;;;;;;23.63;12.40;;;;;;;;;;5033111;28;20433;-52
2022/08/01 06:42:09;;;;;;;17.83;12.63;;;;;;;;;;5031858;28;20469;-49
2022/08/01 06:44:35;;;;;;;16.17;12.03;;;;;;;;;;5033004;28;20730;-51
2022/08/01 06:47:01;;;;;;;16.87;12.00;;;;;;;;;;5033760;28;20534;-49
2022/08/01 06:49:28;;;;;;;17.30;13.20;;;;;;;;;;5033369;28;20854;-52
2022/08/01 06:51:55;;;;;;;16.83;13.03;;;;;;;;;;5032973;28;21001;-49
2022/08/01 06:54:21;;;;;;;16.00;12.90;;;;;;;;;;5033583;28;20900;-50
2022/08/01 06:56:47;;;;;;;15.47;13.60;;;;;;;;;;5033510;28;20405;-49
2022/08/01 06:59:13;;;;;;;23.50;15.70;;;;;;;;;;5033255;28;20410;-50
2022/08/01 07:01:39;;;;;;;18.27;14.63;;;;;;;;;;5032687;28;20459;-50
2022/08/01 07:04:05;;;;;;;22.40;14.47;;;;;;;;;;5033534;28;20406;-50
2022/08/01 07:06:31;;;;;;;21.67;14.17;;;;;;;;;;5033360;28;20400;-51
2022/08/01 07:08:57;;;;;;;16.97;13.43;;;;;;;;;;5040495;28;20941;-50
2022/08/01 07:11:23;;;;;;;13.93;11.97;;;;;;;;;;5031478;28;20440;-51
2022/08/01 07:13:50;;;;;;;15.10;11.77;;;;;;;;;;5031364;28;20498;-50
2022/08/01 07:16:16;;;;;;;21.20;12.70;;;;;;;;;;5031936;28;20433;-51
2022/08/01 07:18:42;;;;;;;15.17;12.77;;;;;;;;;;5032405;28;20413;-52
2022/08/01 07:21:08;;;;;;;15.40;13.17;;;;;;;;;;5031066;28;20996;-52
2022/08/01 07:23:34;;;;;;;20.50;15.40;;;;;;;;;;5034568;28;20456;-50
2022/08/01 07:26:03;;;;;;;16.83;12.90;;;;;;;;;;5034063;28;20394;-51
2022/08/01 07:28:30;;;;;;;15.67;12.13;;;;;;;;;;5034057;28;20405;-50
2022/08/01 07:30:56;;;;;;;17.63;12.50;;;;;;;;;;5031762;28;20441;-50
2022/08/01 07:33:22;;;;;;;13.50;11.03;;;;;;;;;;5034395;28;20402;-50
2022/08/01 07:35:48;;;;;;;12.43;11.13;;;;;;;;;;5033438;28;20398;-51
2022/08/01 07:38:17;;;;;;;11.03;9.97;;;;;;;;;;5033487;28;20398;-51
2022/08/01 07:40:44;;;;;;;14.53;11.73;;;;;;;;;;5032935;28;20440;-50
2022/08/01 07:43:10;;;;;;;15.40;12.57;;;;;;;;;;5033251;28;20469;-52
2022/08/01 07:45:35;;;;;;;11.10;8.87;;;;;;;;;;5033990;28;20416;-50
2022/08/01 07:48:05;;;;;;;11.00;9.90;;;;;;;;;;5033682;28;20437;-53
2022/08/01 07:50:31;;;;;;;11.90;10.60;;;;;;;;;;5032966;28;20492;-50
2022/08/01 07:52:57;;;;;;;10.50;9.33;;;;;;;;;;5034096;28;20406;-52
2022/08/01 07:55:23;;;;;;;10.80;8.90;;;;;;;;;;5032414;28;20410;-51
2022/08/01 07:57:49;;;;;;;8.30;7.50;;;;;;;;;;5032362;28;20421;-52
2022/08/01 08:00:15;;;;;;;7.03;6.43;;;;;;;;;;5031576;28;20567;-51
2022/08/01 08:02:41;;;;;;;13.90;6.30;;;;;;;;;;5032485;28;20511;-51
2022/08/01 08:05:08;;;;;;;7.67;6.60;;;;;;;;;;5032445;28;20744;-51
2022/08/01 08:07:34;;;;;;;6.27;5.70;;;;;;;;;;5032354;28;20402;-51
2022/08/01 08:10:00;;;;;;;5.63;5.17;;;;;;;;;;5031368;28;20429;-53
2022/08/01 08:12:26;;;;;;;4.73;4.40;;;;;;;;;;5030568;28;20496;-53
2022/08/01 08:14:52;;;;;;;4.80;4.43;;;;;;;;;;5032094;28;20512;-51
2022/08/01 08:17:18;;;;;;;5.30;4.80;;;;;;;;;;5032124;28;20968;-53
2022/08/01 08:19:44;;;;;;;4.20;3.90;;;;;;;;;;5031302;28;20433;-52
2022/08/01 08:22:10;;;;;;;4.00;3.77;;;;;;;;;;5031934;28;20544;-52
2022/08/01 08:24:36;;;;;;;7.73;3.83;;;;;;;;;;5031868;28;20402;-51
2022/08/01 08:27:03;;;;;;;4.33;3.93;;;;;;;;;;5031896;28;20936;-52
2022/08/01 08:29:31;;;;;;;4.80;4.40;;;;;;;;;;5031819;28;20455;-53
2022/08/01 08:31:58;;;;;;;5.80;4.90;;;;;;;;;;5030904;28;20410;-52
2022/08/01 08:34:25;;;;;;;3.73;3.50;;;;;;;;;;5031078;28;20433;-52
2022/08/01 08:36:51;;;;;;;3.20;3.00;;;;;;;;;;5010951;28;20969;-52
2022/08/01 08:39:17;;;;;;;4.03;2.63;;;;;;;;;;5011702;28;20494;-51
2022/08/01 08:41:43;;;;;;;3.20;2.40;;;;;;;;;;5020157;28;20470;-52
2022/08/01 08:44:10;;;;;;;2.80;2.60;;;;;;;;;;5031687;28;20409;-53
2022/08/01 08:46:40;;;;;;;3.00;2.70;;;;;;;;;;5031374;28;20878;-52
2022/08/01 08:49:07;;;;;;;2.73;2.53;;;;;;;;;;5030110;28;20406;-53
2022/08/01 08:51:34;;;;;;;2.30;2.10;;;;;;;;;;5030716;28;20426;-52
2022/08/01 08:54:00;;;;;;;2.23;2.03;;;;;;;;;;5031648;28;20405;-52
2022/08/01 08:56:29;;;;;;;3.90;2.40;;;;;;;;;;5031717;28;20728;-52
2022/08/01 08:58:56;;;;;;;2.43;2.20;;;;;;;;;;5031523;28;20407;-53
2022/08/01 09:01:22;;;;;;;2.30;2.10;;;;;;;;;;5030705;28;20496;-52
2022/08/01 09:03:48;;;;;;;17.63;2.70;;;;;;;;;;5031490;28;20484;-52
2022/08/01 09:06:14;;;;;;;2.60;1.83;;;;;;;;;;5035346;28;20441;-52
2022/08/01 09:08:40;;;;;;;6.50;2.30;;;;;;;;;;5035511;28;20398;-52
2022/08/01 09:11:06;;;;;;;2.37;2.00;;;;;;;;;;5033096;28;20448;-52
2022/08/01 09:13:32;;;;;;;1.87;1.77;;;;;;;;;;5034763;28;20421;-52
2022/08/01 09:15:58;;;;;;;2.03;1.93;;;;;;;;;;5035381;28;20398;-52
2022/08/01 09:18:32;;;;;;;2.50;2.20;;;;;;;;;;5035366;28;20398;-53
2022/08/01 09:21:07;;;;;;;1.90;1.80;;;;;;;;;;5034450;28;20414;-51
2022/08/01 09:23:33;;;;;;;2.40;2.30;;;;;;;;;;5035272;28;20413;-51
2022/08/01 09:25:59;;;;;;;2.13;2.03;;;;;;;;;;5035251;28;20406;-53
2022/08/01 09:28:29;;;;;;;3.33;3.03;;;;;;;;;;5035193;28;20406;-53
2022/08/01 09:30:58;;;;;;;2.53;2.37;;;;;;;;;;5034296;28;20422;-53
2022/08/01 09:33:25;;;;;;;2.87;2.67;;;;;;;;;;5035046;28;20408;-51
2022/08/01 09:35:55;;;;;;;2.90;2.70;;;;;;;;;;5035059;28;20848;-51
2022/08/01 09:38:22;;;;;;;4.80;3.07;;;;;;;;;;5034126;28;20834;-52
2022/08/01 09:40:49;;;;;;;2.73;2.53;;;;;;;;;;5034190;28;20432;-51
2022/08/01 09:43:15;;;;;;;3.00;2.80;;;;;;;;;;5034932;28;20933;-52
2022/08/01 09:45:41;;;;;;;2.90;2.60;;;;;;;;;;5034197;28;20935;-51
2022/08/01 09:48:08;;;;;;;3.27;3.03;;;;;;;;;;5034808;28;20432;-52
2022/08/01 09:50:41;;;;;;;3.13;2.93;;;;;;;;;;5033942;28;20528;-51
2022/08/01 09:53:08;;;;;;;4.50;2.47;;;;;;;;;;5033767;28;20968;-52
2022/08/01 09:55:34;;;;;;;2.57;2.37;;;;;;;;;;5033564;28;20409;-52
2022/08/01 09:58:00;;;;;;;4.97;2.60;;;;;;;;;;5034673;28;20398;-52
2022/08/01 10:00:26;;;;;;;4.97;2.27;;;;;;;;;;5033681;28;20464;-52
2022/08/01 10:02:53;;;;;;;2.90;2.70;;;;;;;;;;5034490;28;20964;-51
2022/08/01 10:05:30;;;;;;;1.93;1.80;;;;;;;;;;5034714;28;20406;-52
2022/08/01 10:07:57;;;;;;;2.03;1.80;;;;;;;;;;5034506;28;20390;-51
2022/08/01 10:10:23;;;;;;;1.50;1.40;;;;;;;;;;5033666;28;20920;-52
2022/08/01 10:12:51;;;;;;;1.70;1.60;;;;;;;;;;5034233;28;20398;-52
2022/08/01 10:15:20;;;;;;;4.83;1.70;;;;;;;;;;5033829;28;20461;-51
2022/08/01 10:17:49;;;;;;;2.17;2.07;;;;;;;;;;5033637;28;20414;-52
2022/08/01 10:20:16;;;;;;;2.20;2.10;;;;;;;;;;5033577;28;20425;-52
2022/08/01 10:22:43;;;;;;;3.00;2.17;;;;;;;;;;5033055;28;20466;-52
2022/08/01 10:25:09;;;;;;;1.80;1.70;;;;;;;;;;5034257;28;20406;-52
2022/08/01 10:27:37;;;;;;;1.90;1.80;;;;;;;;;;5034035;28;20972;-53
2022/08/01 10:30:04;;;;;;;1.80;1.70;;;;;;;;;;5033263;28;20450;-52
2022/08/01 10:32:31;;;;;;;1.77;1.67;;;;;;;;;;5033020;28;20430;-52
2022/08/01 10:34:58;;;;;;;1.70;1.60;;;;;;;;;;5033250;28;20430;-51
2022/08/01 10:37:25;;;;;;;1.80;1.70;;;;;;;;;;5033930;28;20413;-52
2022/08/01 10:39:52;;;;;;;1.90;1.50;;;;;;;;;;5033044;28;20418;-52
2022/08/01 10:42:18;;;;;;;1.70;1.60;;;;;;;;;;5033744;28;20458;-52
2022/08/01 10:44:47;;;;;;;1.53;1.43;;;;;;;;;;5033991;28;20460;-52
2022/08/01 10:47:34;;;;;;;1.70;1.60;;;;;;;;;;5033757;28;20817;-53
2022/08/01 10:50:04;;;;;;;1.97;1.77;;;;;;;;;;5032832;28;20450;-51
2022/08/01 10:52:31;;;;;;;2.00;1.90;;;;;;;;;;5033579;28;20414;-51
2022/08/01 10:55:06;;;;;;;1.80;1.70;;;;;;;;;;5033699;28;20402;-51
2022/08/01 10:57:45;;;;;;;2.10;1.90;;;;;;;;;;5033596;28;20889;-51
2022/08/01 11:00:21;;;;;;;3.57;1.80;;;;;;;;;;5032820;28;20430;-51
2022/08/01 11:03:01;;;;;;;1.90;1.80;;;;;;;;;;5033323;28;20463;-52
2022/08/01 11:05:27;;;;;;;2.50;2.30;;;;;;;;;;5031716;28;20462;-52
2022/08/01 11:07:54;;;;;;;3.33;2.07;;;;;;;;;;5032559;28;20458;-52
2022/08/01 11:10:37;;;;;;;3.47;2.00;;;;;;;;;;5032519;28;20416;-51
2022/08/01 11:13:07;;;;;;;1.80;1.70;;;;;;;;;;5033234;28;20398;-51
2022/08/01 11:15:33;;;;;;;3.30;1.43;;;;;;;;;;5033188;28;20409;-53
2022/08/01 11:18:00;;;;;;;1.77;1.63;;;;;;;;;;5033134;28;20894;-52
2022/08/01 11:20:32;;;;;;;2.53;1.50;;;;;;;;;;5032376;28;20429;-52
2022/08/01 11:23:03;;;;;;;3.60;1.77;;;;;;;;;;5033260;28;20449;-51
2022/08/01 11:25:40;;;;;;;1.60;1.50;;;;;;;;;;5033050;28;20984;-51
2022/08/01 11:28:18;;;;;;;1.67;1.57;;;;;;;;;;5032507;28;20401;-52
2022/08/01 11:30:50;;;;;;;2.30;1.40;;;;;;;;;;5032109;28;20420;-52
2022/08/01 11:33:18;;;;;;;1.77;1.20;;;;;;;;;;5032862;28;20402;-52
2022/08/01 11:36:03;;;;;;;1.27;1.17;;;;;;;;;;5031882;28;20984;-52
2022/08/01 11:38:30;;;;;;;1.63;1.27;;;;;;;;;;5032341;28;20437;-53
2022/08/01 11:41:31;;;;;;;1.83;1.13;;;;;;;;;;5032054;28;20507;-52
2022/08/01 11:43:58;;;;;;;1.27;1.17;;;;;;;;;;4971639;28;20555;-52
2022/08/01 11:46:43;;;;;;;1.60;1.13;;;;;;;;;;5020670;28;20776;-51
2022/08/01 11:49:24;;;;;;;1.00;0.90;;;;;;;;;;5030957;28;20473;-52
2022/08/01 11:51:57;;;;;;;1.73;1.10;;;;;;;;;;5032101;28;20426;-52
2022/08/01 11:54:30;;;;;;;1.43;1.33;;;;;;;;;;5032494;28;20398;-52
2022/08/01 11:56:57;;;;;;;1.37;1.10;;;;;;;;;;5032407;28;20402;-52
2022/08/01 11:59:23;;;;;;;1.30;1.20;;;;;;;;;;5032304;28;20847;-52
2022/08/01 12:01:49;;;;;;;1.60;1.50;;;;;;;;;;5031740;28;20460;-51
2022/08/01 12:04:15;;;;;;;1.23;1.00;;;;;;;;;;5031499;28;20803;-52
2022/08/01 12:06:41;;;;;;;1.30;1.07;;;;;;;;;;5032311;28;20403;-51
2022/08/01 12:09:18;;;;;;;1.40;1.30;;;;;;;;;;5032127;28;20409;-52
2022/08/01 12:11:44;;;;;;;1.17;1.07;;;;;;;;;;5031560;28;20511;-52
2022/08/01 12:14:16;;;;;;;1.10;1.00;;;;;;;;;;5032218;28;20890;-52
2022/08/01 12:16:48;;;;;;;0.90;0.90;;;;;;;;;;5032172;28;20452;-51
2022/08/01 12:19:19;;;;;;;0.97;0.97;;;;;;;;;;5031992;28;20402;-52
2022/08/01 12:21:45;;;;;;;0.80;0.80;;;;;;;;;;5031255;28;20465;-51
2022/08/01 12:24:11;;;;;;;0.80;0.80;;;;;;;;;;5032004;28;20399;-51
2022/08/01 12:26:41;;;;;;;1.20;1.00;;;;;;;;;;5032056;28;20406;-53
2022/08/01 12:29:07;;;;;;;0.90;0.87;;;;;;;;;;5031809;28;20402;-52
2022/08/01 12:31:33;;;;;;;1.00;0.90;;;;;;;;;;5031240;28;20430;-52
2022/08/01 12:34:19;;;;;;;1.67;1.07;;;;;;;;;;5031120;28;20513;-52
2022/08/01 12:36:46;;;;;;;0.90;0.83;;;;;;;;;;5030864;28;20434;-52
2022/08/01 12:39:12;;;;;;;1.77;1.00;;;;;;;;;;5031094;28;20442;-52
2022/08/01 12:41:38;;;;;;;1.20;1.10;;;;;;;;;;5031133;28;20868;-51
2022/08/01 12:44:12;;;;;;;1.37;1.17;;;;;;;;;;5031775;28;20403;-52
2022/08/01 12:46:42;;;;;;;1.43;1.33;;;;;;;;;;5031815;28;20413;-51
2022/08/01 12:49:08;;;;;;;1.17;1.07;;;;;;;;;;5031333;28;20459;-52
2022/08/01 12:51:34;;;;;;;1.30;1.20;;;;;;;;;;5031118;28;20409;-51
2022/08/01 12:54:00;;;;;;;1.17;1.00;;;;;;;;;;5031702;28;20402;-53
2022/08/01 12:56:33;;;;;;;1.10;1.00;;;;;;;;;;5031706;28;20878;-53
2022/08/01 12:58:59;;;;;;;0.90;0.80;;;;;;;;;;5031763;28;20739;-52
2022/08/01 13:01:26;;;;;;;1.23;1.13;;;;;;;;;;5030902;28;20413;-53
2022/08/01 13:04:06;;;;;;;1.23;1.00;;;;;;;;;;5030722;28;20403;-52
2022/08/01 13:06:32;;;;;;;1.03;0.93;;;;;;;;;;5012100;28;20403;-53
2022/08/01 13:09:10;;;;;;;0.90;0.90;;;;;;;;;;5029689;28;20434;-51
2022/08/01 13:11:36;;;;;;;1.60;1.00;;;;;;;;;;5030925;28;20402;-51
2022/08/01 13:14:02;;;;;;;0.80;0.80;;;;;;;;;;5031540;28;20810;-51
2022/08/01 13:16:29;;;;;;;1.33;1.00;;;;;;;;;;5031729;28;20405;-51
2022/08/01 13:18:56;;;;;;;1.10;1.00;;;;;;;;;;5031348;28;20417;-53
2022/08/01 13:21:26;;;;;;;0.80;0.80;;;;;;;;;;5030818;28;20421;-51
2022/08/01 13:24:02;;;;;;;0.97;0.87;;;;;;;;;;5031488;28;20509;-52
2022/08/01 13:26:38;;;;;;;1.30;1.20;;;;;;;;;;5031404;28;20959;-52
2022/08/01 13:29:08;;;;;;;1.30;1.10;;;;;;;;;;5031284;28;20398;-52
2022/08/01 13:31:34;;;;;;;1.00;0.90;;;;;;;;;;5029512;28;20414;-51
2022/08/01 13:34:01;;;;;;;1.00;0.90;;;;;;;;;;5031315;28;20409;-53
2022/08/01 13:36:28;;;;;;;1.00;0.80;;;;;;;;;;5030489;28;20513;-53
2022/08/01 13:41:39;;;;;;;1.20;0.80;;;;;;;;;;5030359;28;20453;-52
2022/08/01 13:44:05;;;;;;;0.93;0.80;;;;;;;;;;5031160;28;20397;-52
2022/08/01 13:46:31;;;;;;;1.00;0.90;;;;;;;;;;5031096;28;20390;-52
2022/08/01 13:48:57;;;;;;;1.40;1.10;;;;;;;;;;5030833;28;20437;-52
2022/08/01 13:51:23;;;;;;;2.13;1.10;;;;;;;;;;5032405;28;20477;-52
2022/08/01 13:53:49;;;;;;;1.20;1.10;;;;;;;;;;5047275;22;20512;-52
2022/08/01 13:56:19;;;;;;;9.23;1.57;;;;;;;;;;5014720;28;20435;-52
2022/08/01 13:58:45;;;;;;;1.30;1.07;;;;;;;;;;5014863;28;20384;-52
2022/08/01 14:01:11;;;;;;;2.13;0.90;;;;;;;;;;5013776;28;20429;-52
2022/08/01 14:03:37;;;;;;;1.50;1.00;;;;;;;;;;5014429;28;20942;-52
2022/08/01 14:06:04;;;;;;;1.10;1.00;;;;;;;;;;5012740;28;20434;-52
2022/08/01 14:08:30;;;;;;;1.20;1.10;;;;;;;;;;5020057;28;20418;-52
2022/08/01 14:10:58;;;;;;;1.10;1.00;;;;;;;;;;5014660;28;20449;-54
2022/08/01 14:13:24;;;;;;;1.10;1.00;;;;;;;;;;5015441;28;20419;-53
2022/08/01 14:15:51;;;;;;;2.03;1.00;;;;;;;;;;5014804;28;20434;-53
2022/08/01 14:18:17;;;;;;;1.50;1.03;;;;;;;;;;5014319;28;20407;-53
2022/08/01 14:20:43;;;;;;;1.20;1.10;;;;;;;;;;5014425;28;20895;-53
2022/08/01 14:23:09;;;;;;;1.60;1.50;;;;;;;;;;5013050;28;21005;-53
2022/08/01 14:25:37;;;;;;;1.30;1.20;;;;;;;;;;5014173;28;20777;-53
2022/08/01 14:28:03;;;;;;;1.20;1.10;;;;;;;;;;5014639;28;20889;-53
2022/08/01 14:30:29;;;;;;;1.93;1.10;;;;;;;;;;5013432;28;20883;-52
2022/08/01 14:32:55;;;;;;;1.43;1.33;;;;;;;;;;5013959;28;20465;-53
2022/08/01 14:35:21;;;;;;;1.53;1.00;;;;;;;;;;5012188;28;20785;-52